Time;durP1;ratioP1;P1;durP2;ratioP2;P2;SDS_P1;SDS_P2;PMS_P1;PMS_P2;Temp;Humidity;BMP_temperature;BMP_pressure;BME280_temperature;BME280_humidity;BME280_pressure;Samples;Min_cycle;Max_cycle;Signal;HPM_P1;HPM_P2
2023/10/29 00:00:37;;;;;;;;;;;10.30;86.20;;;;;;4153510;28;19920;-85
2023/10/29 00:02:38;;;;;;;;;;;10.30;86.30;;;;;;4182225;28;19916;-86
2023/10/29 00:04:59;;;;;;;;;;;10.30;86.20;;;;;;4170365;28;20359;-86
2023/10/29 00:07:19;;;;;;;;;;;10.30;86.20;;;;;;4156338;28;19939;-86
2023/10/29 00:09:40;;;;;;;;;;;10.30;86.20;;;;;;4157593;28;19921;-86
2023/10/29 00:12:01;;;;;;;;;;;10.30;86.20;;;;;;4157824;28;20020;-85
2023/10/29 00:14:21;;;;;;;;;;;10.30;86.20;;;;;;4155364;28;20065;-86
2023/10/29 00:16:42;;;;;;;;;;;10.30;86.30;;;;;;4151490;28;20016;-86
2023/10/29 00:19:02;;;;;;;;;;;10.40;86.30;;;;;;4172744;28;19920;-86
2023/10/29 00:21:16;;;;;;;;;;;10.30;86.30;;;;;;4165601;28;20504;-85
2023/10/29 00:23:17;;;;;;;;;;;10.30;86.20;;;;;;4149851;28;19925;-86
2023/10/29 00:25:18;;;;;;;;;;;10.40;86.20;;;;;;4150727;28;19932;-86
2023/10/29 00:27:18;;;;;;;;;;;10.30;86.20;;;;;;4151831;28;20012;-85
2023/10/29 00:29:19;;;;;;;;;;;10.40;86.20;;;;;;4173079;28;20007;-85
2023/10/29 00:31:20;;;;;;;;;;;10.40;86.10;;;;;;4172746;28;19928;-85
2023/10/29 00:33:20;;;;;;;;;;;10.30;86.00;;;;;;4155707;28;19959;-86
2023/10/29 00:35:21;;;;;;;;;;;10.40;86.30;;;;;;4170848;28;20433;-85
2023/10/29 00:37:22;;;;;;;;;;;10.30;86.20;;;;;;4137658;28;19944;-86
2023/10/29 00:39:22;;;;;;;;;;;10.30;86.10;;;;;;4153613;28;19921;-86
2023/10/29 00:41:23;;;;;;;;;;;10.40;86.20;;;;;;4180213;28;19916;-86
2023/10/29 00:43:43;;;;;;;;;;;10.40;86.30;;;;;;4171461;28;19935;-86
2023/10/29 00:46:04;;;;;;;;;;;10.40;86.30;;;;;;4169853;28;19928;-85
2023/10/29 00:48:25;;;;;;;;;;;10.30;86.20;;;;;;4157484;28;19921;-87
2023/10/29 00:50:46;;;;;;;;;;;10.30;86.20;;;;;;4183440;28;20003;-85
2023/10/29 00:52:47;;;;;;;;;;;10.40;86.20;;;;;;4139942;28;19917;-85
2023/10/29 00:54:48;;;;;;;;;;;10.40;86.10;;;;;;4174317;28;19913;-87
2023/10/29 00:56:55;;;;;;;;;;;10.30;86.10;;;;;;4170570;28;19921;-84
2023/10/29 00:58:56;;;;;;;;;;;10.40;86.20;;;;;;4171090;28;19928;-86
2023/10/29 01:00:57;;;;;;;;;;;10.30;86.00;;;;;;4152037;28;19917;-87
2023/10/29 01:02:57;;;;;;;;;;;10.40;86.00;;;;;;4171079;28;19924;-86
2023/10/29 01:04:58;;;;;;;;;;;10.40;86.20;;;;;;4128693;28;19914;-85
2023/10/29 01:06:59;;;;;;;;;;;10.40;86.10;;;;;;4149856;28;19921;-85
2023/10/29 01:08:59;;;;;;;;;;;10.40;86.20;;;;;;4166503;28;19917;-86
2023/10/29 01:11:00;;;;;;;;;;;10.40;86.10;;;;;;4173766;28;20011;-86
2023/10/29 01:13:01;;;;;;;;;;;10.40;86.00;;;;;;4155399;28;19924;-85
2023/10/29 01:15:02;;;;;;;;;;;10.30;86.10;;;;;;4153421;28;19942;-86
2023/10/29 01:17:02;;;;;;;;;;;10.30;86.00;;;;;;4171775;28;19920;-86
2023/10/29 01:19:03;;;;;;;;;;;10.40;86.00;;;;;;4170546;28;19921;-86
2023/10/29 01:21:04;;;;;;;;;;;10.30;86.20;;;;;;4168630;28;19928;-85
2023/10/29 01:23:10;;;;;;;;;;;10.40;86.20;;;;;;4137104;28;19918;-86
2023/10/29 01:25:12;;;;;;;;;;;10.40;86.30;;;;;;4155084;28;19918;-85
2023/10/29 01:27:13;;;;;;;;;;;10.30;86.20;;;;;;4166903;28;20822;-85
2023/10/29 01:29:14;;;;;;;;;;;10.30;86.30;;;;;;4155184;28;19975;-85
2023/10/29 01:31:18;;;;;;;;;;;10.30;86.30;;;;;;4156355;28;19948;-85
2023/10/29 01:33:19;;;;;;;;;;;10.20;86.20;;;;;;4187701;28;19975;-85
2023/10/29 01:35:20;;;;;;;;;;;10.40;86.30;;;;;;4154460;28;20414;-85
2023/10/29 01:37:21;;;;;;;;;;;10.30;86.20;;;;;;4183341;28;19938;-85
2023/10/29 01:39:24;;;;;;;;;;;10.30;86.20;;;;;;4153611;28;19913;-86
2023/10/29 01:41:25;;;;;;;;;;;10.40;86.30;;;;;;4171316;28;19943;-85
2023/10/29 01:43:27;;;;;;;;;;;10.30;86.20;;;;;;4183534;28;19920;-86
2023/10/29 01:45:28;;;;;;;;;;;10.40;86.30;;;;;;4154645;28;19917;-86
2023/10/29 01:47:31;;;;;;;;;;;10.40;86.30;;;;;;4179912;28;20015;-85
2023/10/29 01:49:33;;;;;;;;;;;10.20;86.10;;;;;;4170957;28;19917;-86
2023/10/29 01:51:33;;;;;;;;;;;10.30;86.20;;;;;;4170331;28;19996;-86
2023/10/29 01:53:34;;;;;;;;;;;10.40;86.10;;;;;;4156374;28;20511;-86
2023/10/29 01:55:39;;;;;;;;;;;10.30;86.20;;;;;;4181654;28;19985;-85
2023/10/29 01:57:59;;;;;;;;;;;10.30;86.30;;;;;;4156515;28;20536;-85
2023/10/29 02:00:00;;;;;;;;;;;10.30;86.20;;;;;;4171467;28;19916;-85
2023/10/29 02:02:21;;;;;;;;;;;10.30;86.20;;;;;;4152056;28;19924;-85
2023/10/29 02:04:41;;;;;;;;;;;10.40;86.30;;;;;;4171875;28;19913;-86
2023/10/29 02:07:02;;;;;;;;;;;10.30;86.20;;;;;;4156141;28;20019;-85
2023/10/29 02:09:23;;;;;;;;;;;10.30;86.30;;;;;;4157515;28;20020;-86
2023/10/29 02:11:43;;;;;;;;;;;10.40;86.30;;;;;;4173896;28;19959;-86
2023/10/29 02:14:07;;;;;;;;;;;10.50;86.40;;;;;;4171428;28;19956;-86
2023/10/29 02:16:28;;;;;;;;;;;10.30;86.30;;;;;;4166672;28;19917;-86
2023/10/29 02:18:49;;;;;;;;;;;10.30;86.20;;;;;;4172544;28;20082;-85
2023/10/29 02:21:09;;;;;;;;;;;10.30;86.20;;;;;;4158407;28;19956;-87
2023/10/29 02:23:30;;;;;;;;;;;10.30;86.10;;;;;;4173789;28;19913;-85
2023/10/29 02:25:50;;;;;;;;;;;10.30;86.20;;;;;;4173613;28;20294;-86
2023/10/29 02:28:11;;;;;;;;;;;10.40;86.40;;;;;;4160596;28;19959;-86
2023/10/29 02:30:35;;;;;;;;;;;10.40;86.30;;;;;;4157282;28;19921;-87
2023/10/29 02:32:35;;;;;;;;;;;10.30;86.20;;;;;;4155090;28;19918;-85
2023/10/29 02:34:36;;;;;;;;;;;10.40;86.30;;;;;;4158260;28;20452;-86
2023/10/29 02:36:37;;;;;;;;;;;10.40;86.30;;;;;;4178754;23;20061;-87
2023/10/29 02:38:42;;;;;;;;;;;10.40;86.30;;;;;;4152559;28;19917;-88
2023/10/29 02:40:43;;;;;;;;;;;10.30;86.10;;;;;;4174531;28;20495;-86
2023/10/29 02:42:44;;;;;;;;;;;10.30;86.30;;;;;;4159246;28;19964;-87
2023/10/29 02:44:47;;;;;;;;;;;10.30;86.20;;;;;;4160269;28;19920;-87
2023/10/29 02:46:48;;;;;;;;;;;10.30;86.20;;;;;;4149851;28;19920;-86
2023/10/29 02:49:00;;;;;;;;;;;10.40;86.30;;;;;;4177570;28;19921;-87
2023/10/29 02:51:16;;;;;;;;;;;10.40;86.40;;;;;;4202550;28;19994;-87
2023/10/29 02:53:16;;;;;;;;;;;10.30;86.30;;;;;;4163048;28;19917;-87
2023/10/29 02:55:37;;;;;;;;;;;10.30;86.20;;;;;;4158387;28;19913;-88
2023/10/29 02:57:38;;;;;;;;;;;10.40;86.30;;;;;;4143510;28;19963;-86
2023/10/29 02:59:59;;;;;;;;;;;10.40;86.30;;;;;;4159521;28;19913;-87
2023/10/29 03:02:20;;;;;;;;;;;10.30;86.10;;;;;;4172733;28;19955;-87
2023/10/29 03:04:40;;;;;;;;;;;10.40;86.30;;;;;;4161479;28;19913;-87
2023/10/29 03:07:01;;;;;;;;;;;10.20;86.30;;;;;;4161393;28;19941;-89
2023/10/29 03:09:21;;;;;;;;;;;10.30;86.30;;;;;;4161876;28;19913;-87
2023/10/29 03:11:42;;;;;;;;;;;10.40;86.30;;;;;;4161254;28;19971;-88
2023/10/29 03:14:03;;;;;;;;;;;10.40;87.30;;;;;;4173650;28;20047;-88
2023/10/29 03:16:03;;;;;;;;;;;10.30;86.50;;;;;;4161825;28;19918;-87
2023/10/29 03:18:24;;;;;;;;;;;10.30;86.40;;;;;;4158712;28;19920;-86
2023/10/29 03:20:45;;;;;;;;;;;10.30;86.40;;;;;;4160278;28;20056;-86
2023/10/29 03:23:06;;;;;;;;;;;10.30;86.50;;;;;;4160579;28;19932;-87
2023/10/29 03:25:26;;;;;;;;;;;10.40;86.50;;;;;;4171306;28;20008;-87
2023/10/29 03:27:47;;;;;;;;;;;10.40;86.60;;;;;;4158175;28;20011;-87
2023/10/29 03:30:08;;;;;;;;;;;10.30;86.50;;;;;;4162250;28;19925;-86
2023/10/29 03:32:28;;;;;;;;;;;10.30;86.40;;;;;;4173540;28;19913;-85
2023/10/29 03:34:49;;;;;;;;;;;10.30;86.50;;;;;;4160075;28;19986;-86
2023/10/29 03:37:09;;;;;;;;;;;10.30;86.60;;;;;;4158613;28;19971;-86
2023/10/29 03:39:33;;;;;;;;;;;10.20;86.50;;;;;;4159100;28;19913;-85
2023/10/29 03:41:54;;;;;;;;;;;10.40;86.70;;;;;;4159230;28;19917;-85
2023/10/29 03:43:54;;;;;;;;;;;10.30;86.60;;;;;;4161564;28;19991;-86
2023/10/29 03:45:55;;;;;;;;;;;10.40;86.70;;;;;;4159911;28;19975;-86
2023/10/29 03:47:55;;;;;;;;;;;10.30;86.50;;;;;;4166444;28;19928;-85
2023/10/29 03:49:56;;;;;;;;;;;10.30;86.50;;;;;;4161210;28;19913;-87
2023/10/29 03:51:57;;;;;;;;;;;10.30;86.60;;;;;;4160817;28;19916;-86
2023/10/29 03:53:57;;;;;;;;;;;10.40;87.50;;;;;;4160812;28;19917;-87
2023/10/29 03:56:00;;;;;;;;;;;10.30;86.60;;;;;;4161545;28;19979;-86
2023/10/29 03:58:01;;;;;;;;;;;10.30;86.70;;;;;;4155585;28;20071;-86
2023/10/29 04:00:02;;;;;;;;;;;10.40;86.70;;;;;;4188232;28;19912;-86
2023/10/29 04:02:03;;;;;;;;;;;10.20;86.50;;;;;;4158124;28;19921;-85
2023/10/29 04:04:08;;;;;;;;;;;10.30;86.70;;;;;;4141872;28;19969;-87
2023/10/29 04:06:09;;;;;;;;;;;10.40;86.70;;;;;;4159895;28;19913;-87
2023/10/29 04:08:10;;;;;;;;;;;10.30;86.60;;;;;;4156893;28;20885;-88
2023/10/29 04:10:10;;;;;;;;;;;10.30;86.60;;;;;;4156810;28;19928;-88
2023/10/29 04:12:11;;;;;;;;;;;10.30;86.80;;;;;;4159206;28;19921;-88
2023/10/29 04:14:12;;;;;;;;;;;10.30;86.70;;;;;;4160463;28;19948;-88
2023/10/29 04:16:13;;;;;;;;;;;10.40;86.70;;;;;;4189321;28;19966;-86
2023/10/29 04:18:34;;;;;;;;;;;10.30;86.70;;;;;;4157527;28;19921;-86
2023/10/29 04:20:34;;;;;;;;;;;10.40;86.90;;;;;;4174427;28;19967;-88
2023/10/29 04:22:55;;;;;;;;;;;10.40;86.90;;;;;;4158519;28;19921;-86
2023/10/29 04:25:15;;;;;;;;;;;10.30;86.90;;;;;;4160084;28;20000;-87
2023/10/29 04:27:36;;;;;;;;;;;10.30;86.70;;;;;;4158404;28;19957;-87
2023/10/29 04:29:56;;;;;;;;;;;10.20;86.90;;;;;;4159147;28;19913;-85
2023/10/29 04:32:17;;;;;;;;;;;10.20;86.90;;;;;;4173408;28;19919;-86
2023/10/29 04:34:38;;;;;;;;;;;10.30;86.90;;;;;;4162027;28;19928;-89
2023/10/29 04:36:59;;;;;;;;;;;10.20;87.10;;;;;;4157632;28;19913;-89
2023/10/29 04:39:20;;;;;;;;;;;10.20;87.10;;;;;;4185072;28;19921;-87
2023/10/29 04:41:41;;;;;;;;;;;10.30;87.20;;;;;;4160414;28;19963;-87
2023/10/29 04:44:05;;;;;;;;;;;10.30;87.10;;;;;;4159812;28;19959;-88
2023/10/29 04:46:25;;;;;;;;;;;10.20;86.90;;;;;;4160694;28;19968;-86
2023/10/29 04:48:46;;;;;;;;;;;10.30;87.30;;;;;;4164162;28;19960;-84
2023/10/29 04:51:07;;;;;;;;;;;10.20;87.20;;;;;;4161038;28;19963;-86
2023/10/29 04:53:27;;;;;;;;;;;10.20;87.30;;;;;;4159584;28;19913;-86
2023/10/29 04:55:48;;;;;;;;;;;10.30;87.40;;;;;;4159193;28;19924;-86
2023/10/29 04:58:08;;;;;;;;;;;10.30;87.40;;;;;;4169011;28;19929;-87
2023/10/29 05:00:09;;;;;;;;;;;10.30;87.50;;;;;;4180143;28;19917;-87
2023/10/29 05:02:10;;;;;;;;;;;10.20;87.50;;;;;;4190806;28;19975;-84
2023/10/29 05:04:11;;;;;;;;;;;10.20;87.40;;;;;;4142686;28;19925;-87
2023/10/29 05:06:21;;;;;;;;;;;10.20;87.40;;;;;;4175566;28;19954;-84
2023/10/29 05:08:22;;;;;;;;;;;10.20;87.40;;;;;;4159818;28;19937;-87
2023/10/29 05:10:25;;;;;;;;;;;10.20;87.40;;;;;;4161842;28;20023;-87
2023/10/29 05:12:25;;;;;;;;;;;10.20;87.40;;;;;;4188685;28;19908;-86
2023/10/29 05:14:26;;;;;;;;;;;10.30;87.40;;;;;;4160627;28;19920;-88
2023/10/29 05:16:27;;;;;;;;;;;10.30;87.30;;;;;;4158347;28;19928;-85
2023/10/29 05:18:27;;;;;;;;;;;10.30;87.50;;;;;;4159771;28;20008;-85
2023/10/29 05:20:31;;;;;;;;;;;10.30;87.50;;;;;;4158981;28;19953;-87
2023/10/29 05:22:32;;;;;;;;;;;10.30;87.50;;;;;;4144879;28;19922;-86
2023/10/29 05:24:53;;;;;;;;;;;10.30;87.60;;;;;;4164191;28;19913;-85
2023/10/29 05:27:03;;;;;;;;;;;10.20;87.50;;;;;;4161277;28;19917;-86
2023/10/29 05:29:23;;;;;;;;;;;10.30;87.60;;;;;;4160197;28;19948;-85
2023/10/29 05:31:44;;;;;;;;;;;10.30;87.80;;;;;;4170075;28;19920;-87
2023/10/29 05:33:45;;;;;;;;;;;10.30;87.90;;;;;;4193041;28;20019;-86
2023/10/29 05:36:06;;;;;;;;;;;10.20;87.90;;;;;;4160572;28;19913;-87
2023/10/29 05:38:26;;;;;;;;;;;10.30;87.80;;;;;;4157613;28;19924;-86
2023/10/29 05:40:47;;;;;;;;;;;10.40;87.80;;;;;;4158207;28;19925;-84
2023/10/29 05:43:07;;;;;;;;;;;10.40;87.80;;;;;;4162797;28;19913;-86
2023/10/29 05:45:28;;;;;;;;;;;10.40;87.70;;;;;;4159182;28;19922;-86
2023/10/29 05:47:48;;;;;;;;;;;10.30;87.70;;;;;;4171206;28;19924;-85
2023/10/29 05:50:09;;;;;;;;;;;10.30;87.70;;;;;;4160476;28;19979;-86
2023/10/29 05:52:20;;;;;;;;;;;10.30;87.60;;;;;;4163587;28;19970;-87
2023/10/29 05:54:21;;;;;;;;;;;10.30;87.80;;;;;;4158711;28;21667;-87
2023/10/29 05:56:24;;;;;;;;;;;10.40;87.80;;;;;;4158692;28;20004;-87
2023/10/29 05:58:24;;;;;;;;;;;10.20;87.80;;;;;;4187109;28;19916;-87
2023/10/29 06:00:25;;;;;;;;;;;10.40;87.90;;;;;;4157571;28;19953;-86
2023/10/29 06:02:46;;;;;;;;;;;10.30;87.80;;;;;;4180165;28;19959;-87
2023/10/29 06:05:06;;;;;;;;;;;10.40;87.70;;;;;;4159498;28;19917;-88
2023/10/29 06:07:08;;;;;;;;;;;10.30;87.70;;;;;;4158775;28;19921;-89
2023/10/29 06:09:09;;;;;;;;;;;10.30;87.70;;;;;;4185597;28;20384;-87
2023/10/29 06:11:17;;;;;;;;;;;10.30;87.70;;;;;;4170267;28;20451;-88
2023/10/29 06:13:38;;;;;;;;;;;10.40;87.80;;;;;;4155791;28;20015;-87
2023/10/29 06:15:58;;;;;;;;;;;10.40;87.70;;;;;;4158219;28;19952;-87
2023/10/29 06:17:59;;;;;;;;;;;10.40;87.70;;;;;;4158677;28;19928;-87
2023/10/29 06:20:21;;;;;;;;;;;10.40;87.70;;;;;;4155064;28;20669;-86
2023/10/29 06:22:41;;;;;;;;;;;10.30;87.60;;;;;;4156174;28;19960;-88
2023/10/29 06:25:02;;;;;;;;;;;10.40;87.70;;;;;;4161232;28;20007;-87
2023/10/29 06:27:22;;;;;;;;;;;10.40;87.70;;;;;;4159247;28;20000;-87
2023/10/29 06:29:43;;;;;;;;;;;10.50;87.80;;;;;;4163287;28;19967;-85
2023/10/29 06:32:04;;;;;;;;;;;10.40;87.70;;;;;;4158307;28;19921;-84
2023/10/29 06:34:24;;;;;;;;;;;10.40;87.70;;;;;;4158512;28;19913;-88
2023/10/29 06:36:45;;;;;;;;;;;10.50;87.80;;;;;;4158562;28;19970;-85
2023/10/29 06:39:06;;;;;;;;;;;10.40;87.70;;;;;;4159845;28;19983;-87
2023/10/29 06:41:29;;;;;;;;;;;10.40;87.70;;;;;;4157052;28;19913;-87
2023/10/29 06:43:50;;;;;;;;;;;10.40;87.60;;;;;;4170509;28;19927;-86
2023/10/29 06:46:11;;;;;;;;;;;10.50;87.70;;;;;;4160006;28;19916;-87
2023/10/29 06:48:11;;;;;;;;;;;10.40;87.60;;;;;;4170909;28;20003;-88
2023/10/29 06:50:12;;;;;;;;;;;10.40;87.60;;;;;;4174220;28;19909;-87
2023/10/29 06:52:12;;;;;;;;;;;10.40;87.50;;;;;;4157522;28;19916;-87
2023/10/29 06:54:13;;;;;;;;;;;10.40;87.60;;;;;;4158995;28;19979;-87
2023/10/29 06:56:13;;;;;;;;;;;10.50;87.70;;;;;;4159938;28;20294;-87
2023/10/29 06:58:14;;;;;;;;;;;10.50;88.40;;;;;;4174937;28;19921;-86
2023/10/29 07:00:16;;;;;;;;;;;10.50;87.60;;;;;;4175511;28;19917;-87
2023/10/29 07:02:22;;;;;;;;;;;10.50;87.70;;;;;;4174756;28;19988;-90
2023/10/29 07:04:25;;;;;;;;;;;10.50;87.60;;;;;;4176077;28;19901;-90
2023/10/29 07:06:46;;;;;;;;;;;10.50;87.60;;;;;;4183341;28;19914;-88
2023/10/29 07:08:49;;;;;;;;;;;10.50;87.60;;;;;;4166737;28;19926;-87
2023/10/29 07:11:09;;;;;;;;;;;10.50;87.60;;;;;;4184036;28;19957;-88
2023/10/29 07:13:31;;;;;;;;;;;10.40;87.60;;;;;;4178030;28;19943;-88
2023/10/29 07:15:52;;;;;;;;;;;10.60;87.60;;;;;;4165211;28;19967;-87
2023/10/29 07:18:12;;;;;;;;;;;10.50;88.30;;;;;;4189629;28;19908;-88
2023/10/29 07:20:33;;;;;;;;;;;10.60;87.70;;;;;;4161726;28;19909;-88
2023/10/29 07:22:56;;;;;;;;;;;10.60;87.60;;;;;;4174728;28;19950;-87
2023/10/29 07:25:17;;;;;;;;;;;10.70;87.70;;;;;;4161671;28;19921;-88
2023/10/29 07:27:38;;;;;;;;;;;10.60;87.60;;;;;;4161316;28;19917;-87
2023/10/29 07:29:58;;;;;;;;;;;10.60;87.70;;;;;;4185802;28;19908;-88
2023/10/29 07:32:19;;;;;;;;;;;10.70;87.70;;;;;;4160237;28;20004;-89
2023/10/29 07:34:39;;;;;;;;;;;10.60;87.70;;;;;;4160763;28;19957;-85
2023/10/29 07:37:00;;;;;;;;;;;10.70;87.70;;;;;;4159844;28;19961;-88
2023/10/29 07:39:21;;;;;;;;;;;10.70;87.60;;;;;;4158190;28;19916;-86
2023/10/29 07:41:41;;;;;;;;;;;10.70;87.70;;;;;;4157992;28;19916;-87
2023/10/29 07:43:42;;;;;;;;;;;10.70;87.60;;;;;;4174462;28;19913;-88
2023/10/29 07:45:47;;;;;;;;;;;10.60;87.60;;;;;;4159928;28;19941;-88
2023/10/29 07:47:48;;;;;;;;;;;10.70;87.60;;;;;;4156059;28;19969;-88
2023/10/29 07:49:49;;;;;;;;;;;10.80;87.70;;;;;;4175107;28;19913;-87
2023/10/29 07:51:55;;;;;;;;;;;10.70;87.60;;;;;;4171978;28;19916;-87
2023/10/29 07:53:55;;;;;;;;;;;10.70;87.60;;;;;;4170943;28;20024;-88
2023/10/29 07:56:12;;;;;;;;;;;10.80;87.70;;;;;;4159426;28;20620;-88
2023/10/29 07:58:13;;;;;;;;;;;10.80;87.70;;;;;;4141996;28;19982;-89
2023/10/29 08:00:13;;;;;;;;;;;10.80;87.80;;;;;;4205491;28;19920;-89
2023/10/29 08:02:14;;;;;;;;;;;10.80;87.70;;;;;;4177862;28;19976;-89
2023/10/29 08:04:15;;;;;;;;;;;10.80;87.80;;;;;;4193271;28;19924;-89
2023/10/29 08:06:15;;;;;;;;;;;10.80;87.80;;;;;;4169313;28;19909;-89
2023/10/29 08:08:18;;;;;;;;;;;10.90;88.00;;;;;;4157382;28;20342;-88
2023/10/29 08:10:24;;;;;;;;;;;10.90;88.00;;;;;;4172465;28;22038;-88
2023/10/29 08:12:45;;;;;;;;;;;10.90;88.00;;;;;;4159498;28;19972;-89
2023/10/29 08:15:06;;;;;;;;;;;11.00;88.20;;;;;;4162516;28;19920;-89
2023/10/29 08:17:29;;;;;;;;;;;11.00;88.20;;;;;;4167476;28;19921;-89
2023/10/29 08:19:55;;;;;;;;;;;11.00;88.30;;;;;;4156341;28;19961;-88
2023/10/29 08:22:19;;;;;;;;;;;11.10;88.30;;;;;;4157124;28;19964;-88
2023/10/29 08:24:40;;;;;;;;;;;11.10;88.40;;;;;;4156931;28;20024;-89
2023/10/29 08:27:00;;;;;;;;;;;11.20;88.60;;;;;;4156392;28;19952;-88
2023/10/29 08:29:24;;;;;;;;;;;11.30;88.60;;;;;;4169186;28;19960;-87
2023/10/29 08:31:44;;;;;;;;;;;11.30;88.60;;;;;;4155124;28;19920;-85
2023/10/29 08:34:05;;;;;;;;;;;11.40;88.50;;;;;;4156631;28;19928;-86
2023/10/29 08:36:32;;;;;;;;;;;11.40;88.50;;;;;;4158370;28;19921;-86
2023/10/29 08:38:58;;;;;;;;;;;11.40;88.40;;;;;;4168230;28;19928;-88
2023/10/29 08:41:20;;;;;;;;;;;11.60;88.60;;;;;;4153562;28;19935;-87
2023/10/29 08:43:41;;;;;;;;;;;11.50;88.60;;;;;;4158281;28;20005;-87
2023/10/29 08:46:01;;;;;;;;;;;11.50;88.60;;;;;;4158385;28;19917;-87
2023/10/29 08:48:22;;;;;;;;;;;11.60;88.70;;;;;;4173734;28;19931;-88
2023/10/29 08:50:23;;;;;;;;;;;11.80;88.90;;;;;;4159269;28;19921;-88
2023/10/29 08:52:23;;;;;;;;;;;11.70;88.90;;;;;;4160579;28;19909;-88
2023/10/29 08:54:24;;;;;;;;;;;11.80;89.00;;;;;;4204125;22;19954;-86
2023/10/29 08:56:33;;;;;;;;;;;11.90;89.00;;;;;;4169674;28;19916;-86
2023/10/29 08:58:57;;;;;;;;;;;12.00;89.20;;;;;;4184917;28;19920;-87
2023/10/29 09:01:20;;;;;;;;;;;12.00;89.20;;;;;;4187234;28;19928;-86
2023/10/29 09:03:36;;;;;;;;;;;12.10;89.20;;;;;;4185609;28;19913;-85
2023/10/29 09:05:40;;;;;;;;;;;12.20;89.30;;;;;;4185776;28;20010;-85
2023/10/29 09:07:41;;;;;;;;;;;12.30;89.30;;;;;;4171438;28;19985;-87
2023/10/29 09:10:02;;;;;;;;;;;12.30;89.30;;;;;;4174019;28;19924;-86
2023/10/29 09:12:22;;;;;;;;;;;12.40;89.40;;;;;;4185310;28;20445;-86
2023/10/29 09:14:43;;;;;;;;;;;12.50;89.40;;;;;;4188452;28;19919;-85
2023/10/29 09:17:04;;;;;;;;;;;12.50;89.40;;;;;;4186953;28;20003;-86
2023/10/29 09:19:27;;;;;;;;;;;12.70;89.50;;;;;;4188620;28;20007;-85
2023/10/29 09:21:48;;;;;;;;;;;12.80;89.60;;;;;;4182890;28;19920;-86
2023/10/29 09:24:09;;;;;;;;;;;12.80;89.50;;;;;;4188782;28;19999;-87
2023/10/29 09:26:29;;;;;;;;;;;12.80;89.40;;;;;;4186806;28;20003;-86
2023/10/29 09:28:30;;;;;;;;;;;12.90;89.30;;;;;;4188263;28;19970;-86
2023/10/29 09:30:31;;;;;;;;;;;13.10;89.20;;;;;;4201974;28;19946;-85
2023/10/29 09:32:35;;;;;;;;;;;13.20;89.10;;;;;;4202719;28;19920;-86
2023/10/29 09:34:36;;;;;;;;;;;13.10;88.90;;;;;;4170414;28;19921;-87
2023/10/29 09:36:37;;;;;;;;;;;13.20;88.90;;;;;;4165075;28;20039;-84
2023/10/29 09:38:38;;;;;;;;;;;13.20;88.90;;;;;;4165169;28;19960;-86
2023/10/29 09:40:41;;;;;;;;;;;13.20;88.90;;;;;;4183645;28;20373;-86
2023/10/29 09:42:49;;;;;;;;;;;13.30;88.90;;;;;;4169162;28;20326;-86
2023/10/29 09:44:54;;;;;;;;;;;13.30;88.80;;;;;;4166377;28;19909;-85
2023/10/29 09:47:23;;;;;;;;;;;13.40;88.70;;;;;;4196588;28;19958;-87
2023/10/29 09:49:44;;;;;;;;;;;13.40;88.50;;;;;;4184425;28;19940;-86
2023/10/29 09:52:05;;;;;;;;;;;13.50;88.50;;;;;;4188977;28;19944;-86
2023/10/29 09:54:25;;;;;;;;;;;13.50;88.30;;;;;;4186973;28;19931;-87
2023/10/29 09:56:46;;;;;;;;;;;13.50;88.20;;;;;;4183893;28;19920;-86
2023/10/29 09:59:07;;;;;;;;;;;13.50;88.10;;;;;;4187585;28;20158;-87
2023/10/29 10:01:28;;;;;;;;;;;13.50;88.00;;;;;;4185885;28;19966;-86
2023/10/29 10:03:29;;;;;;;;;;;13.60;87.90;;;;;;4170756;28;20390;-86
2023/10/29 10:05:30;;;;;;;;;;;13.60;87.70;;;;;;4167798;28;19925;-86
2023/10/29 10:07:31;;;;;;;;;;;13.60;87.60;;;;;;4170964;28;19925;-86
2023/10/29 10:09:53;;;;;;;;;;;13.70;87.40;;;;;;4182548;28;19991;-85
2023/10/29 10:12:13;;;;;;;;;;;13.60;87.30;;;;;;4197385;28;19908;-86
2023/10/29 10:14:34;;;;;;;;;;;13.70;87.20;;;;;;4196024;28;19920;-84
2023/10/29 10:17:08;;;;;;;;;;;13.60;86.90;;;;;;4188391;28;19944;-86
2023/10/29 10:19:32;;;;;;;;;;;13.50;86.70;;;;;;4198952;28;20010;-86
2023/10/29 10:21:52;;;;;;;;;;;13.50;86.70;;;;;;4171581;28;19921;-86
2023/10/29 10:24:13;;;;;;;;;;;13.60;86.70;;;;;;4188815;28;19947;-85
2023/10/29 10:26:35;;;;;;;;;;;13.50;86.60;;;;;;4200871;28;19916;-86
2023/10/29 10:28:50;;;;;;;;;;;13.50;86.60;;;;;;4172896;28;19928;-85
2023/10/29 10:30:50;;;;;;;;;;;13.50;86.70;;;;;;4188619;28;19916;-85
2023/10/29 10:32:52;;;;;;;;;;;13.60;86.60;;;;;;4198906;28;20418;-86
2023/10/29 10:34:53;;;;;;;;;;;13.60;86.30;;;;;;4171286;28;19924;-85
2023/10/29 10:37:14;;;;;;;;;;;13.40;85.50;;;;;;4173188;28;19948;-84
2023/10/29 10:39:19;;;;;;;;;;;13.50;84.20;;;;;;4184726;28;19920;-86
2023/10/29 10:41:43;;;;;;;;;;;13.40;83.40;;;;;;4173896;28;19916;-84
2023/10/29 10:44:14;;;;;;;;;;;13.30;83.70;;;;;;4174262;28;19917;-84
2023/10/29 10:46:36;;;;;;;;;;;13.10;82.70;;;;;;4187848;28;20344;-84
2023/10/29 10:48:57;;;;;;;;;;;13.00;82.20;;;;;;4188595;28;20007;-84
2023/10/29 10:51:17;;;;;;;;;;;12.90;81.90;;;;;;4199596;28;19912;-85
2023/10/29 10:53:23;;;;;;;;;;;12.80;81.90;;;;;;4199452;28;19934;-86
2023/10/29 10:55:27;;;;;;;;;;;12.70;82.00;;;;;;4201081;28;19912;-83
2023/10/29 10:57:29;;;;;;;;;;;12.60;82.10;;;;;;4180833;28;21454;-85
2023/10/29 10:59:29;;;;;;;;;;;12.60;82.30;;;;;;4173085;28;19923;-85
2023/10/29 11:01:30;;;;;;;;;;;12.50;82.50;;;;;;4169181;28;19992;-85
2023/10/29 11:03:32;;;;;;;;;;;12.50;82.80;;;;;;4203151;28;19949;-84
2023/10/29 11:05:53;;;;;;;;;;;12.40;82.90;;;;;;4188232;28;19917;-85
2023/10/29 11:07:54;;;;;;;;;;;12.40;83.30;;;;;;4192824;28;19916;-84
2023/10/29 11:10:15;;;;;;;;;;;12.50;83.70;;;;;;4178054;28;19913;-84
2023/10/29 11:12:36;;;;;;;;;;;12.40;84.00;;;;;;4193683;28;20003;-85
2023/10/29 11:15:15;;;;;;;;;;;12.40;84.40;;;;;;4193417;28;19921;-83
2023/10/29 11:17:54;;;;;;;;;;;12.40;84.70;;;;;;4195573;28;19962;-85
2023/10/29 11:20:33;;;;;;;;;;;12.40;85.00;;;;;;4179414;28;20075;-84
2023/10/29 11:22:54;;;;;;;;;;;12.40;85.30;;;;;;4195298;28;20540;-85
2023/10/29 11:25:15;;;;;;;;;;;12.50;85.50;;;;;;4190163;28;19919;-85
2023/10/29 11:27:39;;;;;;;;;;;12.50;85.50;;;;;;4189917;28;20379;-83
2023/10/29 11:30:18;;;;;;;;;;;12.50;85.80;;;;;;4194813;28;19991;-84
2023/10/29 11:32:39;;;;;;;;;;;12.70;86.00;;;;;;4192908;28;19924;-85
2023/10/29 11:35:15;;;;;;;;;;;12.70;86.10;;;;;;4194864;28;19917;-83
2023/10/29 11:37:37;;;;;;;;;;;12.80;86.10;;;;;;4178393;28;20033;-85
2023/10/29 11:40:18;;;;;;;;;;;13.00;86.10;;;;;;4191727;28;19962;-84
2023/10/29 11:42:38;;;;;;;;;;;13.10;86.20;;;;;;4188643;28;20004;-85
2023/10/29 11:44:39;;;;;;;;;;;13.10;85.70;;;;;;4176688;28;19916;-84
2023/10/29 11:46:55;;;;;;;;;;;13.10;85.10;;;;;;4203384;28;20521;-85
2023/10/29 11:49:02;;;;;;;;;;;13.10;84.90;;;;;;4173967;28;19927;-85
2023/10/29 11:51:23;;;;;;;;;;;13.20;84.50;;;;;;4191086;28;19920;-84
2023/10/29 11:53:43;;;;;;;;;;;13.40;84.10;;;;;;4191323;28;19925;-86
2023/10/29 11:56:05;;;;;;;;;;;13.30;83.90;;;;;;4187877;28;19924;-84
2023/10/29 11:58:29;;;;;;;;;;;13.30;83.90;;;;;;4187875;28;19963;-83
2023/10/29 12:00:53;;;;;;;;;;;13.50;83.00;;;;;;4190486;28;19921;-85
2023/10/29 12:03:22;;;;;;;;;;;13.50;82.50;;;;;;4186223;28;19935;-85
2023/10/29 12:05:52;;;;;;;;;;;13.50;82.30;;;;;;4191207;28;19931;-86
2023/10/29 12:08:12;;;;;;;;;;;13.50;81.80;;;;;;4174776;28;19917;-82
2023/10/29 12:10:43;;;;;;;;;;;13.50;80.80;;;;;;4190236;28;19964;-85
2023/10/29 12:13:04;;;;;;;;;;;13.50;79.40;;;;;;4187771;28;19916;-86
2023/10/29 12:15:07;;;;;;;;;;;13.60;80.30;;;;;;4200075;28;19923;-83
2023/10/29 12:17:08;;;;;;;;;;;13.60;80.30;;;;;;4190481;28;19967;-86
2023/10/29 12:19:35;;;;;;;;;;;13.70;80.10;;;;;;4192918;28;19958;-86
2023/10/29 12:21:59;;;;;;;;;;;13.70;80.70;;;;;;4193424;28;19917;-85
2023/10/29 12:24:22;;;;;;;;;;;13.70;79.70;;;;;;4176863;28;19920;-86
2023/10/29 12:26:45;;;;;;;;;;;13.70;77.60;;;;;;4192785;28;19986;-86
2023/10/29 12:29:06;;;;;;;;;;;13.80;77.70;;;;;;4177590;28;20465;-85
2023/10/29 12:31:33;;;;;;;;;;;13.80;78.60;;;;;;4189206;28;19924;-84
2023/10/29 12:33:57;;;;;;;;;;;13.80;78.60;;;;;;4191175;28;19993;-87
2023/10/29 12:36:18;;;;;;;;;;;13.80;77.90;;;;;;4177553;28;19950;-85
2023/10/29 12:38:44;;;;;;;;;;;13.80;77.30;;;;;;4188435;28;19913;-86
2023/10/29 12:41:00;;;;;;;;;;;13.90;77.70;;;;;;4177323;28;19960;-87
2023/10/29 12:43:00;;;;;;;;;;;13.90;76.60;;;;;;4189531;28;19960;-85
2023/10/29 12:45:01;;;;;;;;;;;14.00;76.00;;;;;;4156480;28;19917;-85
2023/10/29 12:47:01;;;;;;;;;;;13.90;75.70;;;;;;4173167;28;19927;-86
2023/10/29 12:49:07;;;;;;;;;;;13.90;76.70;;;;;;4192538;28;19952;-86
2023/10/29 12:51:08;;;;;;;;;;;13.90;75.70;;;;;;4192965;28;19991;-86